Time;durP1;ratioP1;P1;durP2;ratioP2;P2;SDS_P1;SDS_P2;PMS_P1;PMS_P2;Temp;Humidity;BMP_temperature;BMP_pressure;BME280_temperature;BME280_humidity;BME280_pressure;Samples;Min_cycle;Max_cycle;Signal;HPM_P1;HPM_P2
2022/05/10 00:01:43;;;;;;;19.17;8.25;;;16.70;84.40;;;;;;5035569;28;20037;-67
2022/05/10 00:04:10;;;;;;;16.60;7.95;;;16.80;83.90;;;;;;5035411;28;20045;-67
2022/05/10 00:06:40;;;;;;;18.52;7.55;;;16.70;83.70;;;;;;5035488;28;20084;-67
2022/05/10 00:09:08;;;;;;;21.33;7.78;;;16.70;84.30;;;;;;5035415;28;20045;-67
2022/05/10 00:11:34;;;;;;;12.43;7.80;;;16.70;84.20;;;;;;5035673;28;20470;-67
2022/05/10 00:14:00;;;;;;;21.17;7.85;;;16.60;84.60;;;;;;5035569;28;20053;-67
2022/05/10 00:16:26;;;;;;;19.92;9.45;;;16.60;84.30;;;;;;5035511;28;20367;-67
2022/05/10 00:18:51;;;;;;;15.05;7.95;;;16.50;83.60;;;;;;5035416;28;20481;-67
2022/05/10 00:21:21;;;;;;;17.85;7.88;;;16.50;83.70;;;;;;5035422;28;20030;-67
2022/05/10 00:23:47;;;;;;;16.25;7.75;;;16.60;83.20;;;;;;5035223;28;20037;-67
2022/05/10 00:26:13;;;;;;;18.65;7.88;;;16.60;83.40;;;;;;5035127;28;20099;-66
2022/05/10 00:28:38;;;;;;;14.48;7.13;;;16.70;82.10;;;;;;5035242;28;20084;-67
2022/05/10 00:31:06;;;;;;;14.60;7.35;;;16.70;81.80;;;;;;5035235;28;20034;-67
2022/05/10 00:33:32;;;;;;;17.98;7.28;;;16.70;81.70;;;;;;5034885;28;20040;-67
2022/05/10 00:35:58;;;;;;;10.95;7.15;;;16.70;81.80;;;;;;5034743;28;20049;-67
2022/05/10 00:38:35;;;;;;;16.77;8.23;;;16.70;82.00;;;;;;5034978;28;20112;-67
2022/05/10 00:41:35;;;;;;;13.48;7.25;;;16.60;82.50;;;;;;5035138;28;20032;-67
2022/05/10 00:44:19;;;;;;;19.35;7.70;;;16.60;82.40;;;;;;5035346;28;20037;-67
2022/05/10 00:46:52;;;;;;;10.45;7.43;;;16.60;82.30;;;;;;5035335;28;20044;-67
2022/05/10 00:49:27;;;;;;;15.40;7.85;;;16.60;82.40;;;;;;5034591;28;20033;-66
2022/05/10 00:52:28;;;;;;;13.20;7.88;;;16.50;82.40;;;;;;5034477;28;20084;-67
2022/05/10 00:55:11;;;;;;;18.90;8.75;;;16.50;82.70;;;;;;4989808;28;20080;-67
2022/05/10 00:57:44;;;;;;;13.10;7.55;;;16.40;82.80;;;;;;5033961;28;20486;-67
2022/05/10 01:00:22;;;;;;;17.85;7.95;;;16.40;83.00;;;;;;5031784;28;20375;-66
2022/05/10 01:03:24;;;;;;;17.73;8.63;;;16.40;83.80;;;;;;5031961;28;20048;-67
2022/05/10 01:06:22;;;;;;;16.75;8.27;;;16.30;83.20;;;;;;4972477;28;20161;-67
2022/05/10 01:08:59;;;;;;;11.82;8.40;;;16.40;83.20;;;;;;5033853;28;20029;-67
2022/05/10 01:11:51;;;;;;;14.27;8.98;;;16.30;83.10;;;;;;5033842;28;20038;-67
2022/05/10 01:14:42;;;;;;;18.67;8.50;;;16.30;83.10;;;;;;5025402;28;20037;-67
2022/05/10 01:17:08;;;;;;;17.08;9.95;;;16.30;83.20;;;;;;5023006;28;20091;-67
2022/05/10 01:19:33;;;;;;;11.32;8.35;;;16.30;83.50;;;;;;5033982;28;20030;-67
2022/05/10 01:22:39;;;;;;;12.82;8.75;;;16.20;83.40;;;;;;5034460;28;20041;-67
2022/05/10 01:25:22;;;;;;;16.90;9.70;;;16.20;83.70;;;;;;5034455;28;20048;-67
2022/05/10 01:28:04;;;;;;;12.70;9.45;;;16.20;83.80;;;;;;5033990;28;20474;-67
2022/05/10 01:30:31;;;;;;;15.90;8.43;;;16.10;83.90;;;;;;5034344;28;20477;-66
2022/05/10 01:35:54;;;;;;;15.18;8.00;;;16.10;83.70;;;;;;5034393;28;20505;-67
2022/05/10 01:38:29;;;;;;;14.32;9.07;;;16.10;83.60;;;;;;5034416;28;20045;-66
2022/05/10 01:41:02;;;;;;;15.27;8.45;;;16.00;84.60;;;;;;5034115;28;20076;-67
2022/05/10 01:43:38;;;;;;;11.55;8.93;;;15.90;84.70;;;;;;5034427;28;20041;-65
2022/05/10 01:46:21;;;;;;;17.02;8.45;;;16.00;84.40;;;;;;5034241;28;20486;-65
2022/05/10 01:48:52;;;;;;;14.18;8.40;;;15.90;84.80;;;;;;5033443;28;20454;-66
2022/05/10 01:51:30;;;;;;;15.43;8.32;;;15.90;84.90;;;;;;5033183;28;20044;-67
2022/05/10 01:53:56;;;;;;;12.85;8.40;;;15.80;84.50;;;;;;5033507;28;20425;-66
2022/05/10 01:56:25;;;;;;;15.23;7.88;;;15.80;85.40;;;;;;5033026;28;20029;-66
2022/05/10 01:58:52;;;;;;;12.48;8.40;;;15.70;85.30;;;;;;5032707;28;20061;-67
2022/05/10 02:01:29;;;;;;;12.15;7.82;;;15.70;85.50;;;;;;5032834;28;20033;-67
2022/05/10 02:04:08;;;;;;;10.48;7.55;;;15.60;86.10;;;;;;5031487;28;20482;-67
2022/05/10 02:06:59;;;;;;;10.13;8.13;;;15.70;85.90;;;;;;5031477;28;20115;-66
2022/05/10 02:09:40;;;;;;;15.45;8.07;;;15.70;84.80;;;;;;5033661;28;20109;-66
2022/05/10 02:12:12;;;;;;;11.05;7.82;;;15.70;84.80;;;;;;5033568;28;20033;-66
2022/05/10 02:14:49;;;;;;;14.90;7.90;;;15.70;85.00;;;;;;5033701;28;20030;-66
2022/05/10 02:17:20;;;;;;;16.08;8.88;;;15.60;84.70;;;;;;5033594;28;20034;-66
2022/05/10 02:19:56;;;;;;;15.45;8.35;;;15.60;85.50;;;;;;5033657;28;20113;-66
2022/05/10 02:22:41;;;;;;;9.18;7.80;;;15.60;85.00;;;;;;5033491;28;20032;-65
2022/05/10 02:25:32;;;;;;;11.90;8.40;;;15.70;84.90;;;;;;5033705;28;20093;-67
2022/05/10 02:28:29;;;;;;;9.70;8.00;;;15.60;84.80;;;;;;5033410;28;20041;-66
2022/05/10 02:30:59;;;;;;;14.63;7.75;;;15.60;84.50;;;;;;5008987;28;20057;-66
2022/05/10 02:33:25;;;;;;;14.27;8.20;;;15.60;84.20;;;;;;5033205;28;20034;-67
2022/05/10 02:35:59;;;;;;;14.32;8.68;;;15.60;84.20;;;;;;5033732;28;20045;-67
2022/05/10 02:38:28;;;;;;;16.38;9.88;;;15.60;84.20;;;;;;5033250;28;20083;-66
2022/05/10 02:40:57;;;;;;;12.43;8.65;;;15.60;84.30;;;;;;5032687;28;20092;-66
2022/05/10 02:43:28;;;;;;;13.90;8.77;;;15.60;84.40;;;;;;5032434;28;20521;-67
2022/05/10 02:45:55;;;;;;;15.85;8.77;;;15.50;84.40;;;;;;5032385;28;20045;-67
2022/05/10 02:48:35;;;;;;;11.85;9.15;;;15.50;84.60;;;;;;5032873;28;20176;-66
2022/05/10 02:51:02;;;;;;;11.20;9.02;;;15.50;84.80;;;;;;5031657;28;20474;-66
2022/05/10 02:53:28;;;;;;;13.73;9.07;;;15.50;85.10;;;;;;5031718;28;20038;-66
2022/05/10 02:56:05;;;;;;;13.80;8.95;;;15.50;84.90;;;;;;5031674;28;20056;-67
2022/05/10 02:58:53;;;;;;;15.38;8.90;;;15.50;84.80;;;;;;5024801;28;20117;-66
2022/05/10 03:01:43;;;;;;;22.33;7.80;;;15.40;84.40;;;;;;5031904;28;20069;-67
2022/05/10 03:04:10;;;;;;;17.10;8.55;;;15.50;84.20;;;;;;5031221;28;20038;-66
2022/05/10 03:06:37;;;;;;;17.75;9.60;;;15.50;84.00;;;;;;5031551;28;20394;-67
2022/05/10 03:09:04;;;;;;;19.63;8.27;;;15.40;84.10;;;;;;5031902;28;20117;-66
2022/05/10 03:11:29;;;;;;;13.77;8.85;;;15.40;84.60;;;;;;5031684;28;20401;-67
2022/05/10 03:13:55;;;;;;;17.65;8.60;;;15.40;84.50;;;;;;5031553;28;20044;-67
2022/05/10 03:16:25;;;;;;;17.95;8.13;;;15.40;84.10;;;;;;5031697;28;20033;-66
2022/05/10 03:18:52;;;;;;;14.05;7.15;;;15.40;84.10;;;;;;5034701;28;20055;-67
2022/05/10 03:21:18;;;;;;;17.05;7.00;;;15.50;83.80;;;;;;5038110;28;20068;-67
2022/05/10 03:23:44;;;;;;;13.65;7.47;;;15.50;83.50;;;;;;5038693;28;20130;-67
2022/05/10 03:26:12;;;;;;;18.02;7.45;;;15.50;83.30;;;;;;5038738;28;20466;-66
2022/05/10 03:28:38;;;;;;;11.95;6.53;;;15.60;83.30;;;;;;5038575;28;20034;-67
2022/05/10 03:31:09;;;;;;;19.73;6.82;;;15.60;83.10;;;;;;5038980;28;20041;-67
2022/05/10 03:33:35;;;;;;;13.68;6.75;;;15.70;82.90;;;;;;5038069;28;20044;-67
2022/05/10 03:36:01;;;;;;;10.88;6.45;;;15.60;82.50;;;;;;5038330;28;20030;-66
2022/05/10 03:38:29;;;;;;;14.07;6.80;;;15.70;82.50;;;;;;5037839;28;20037;-67
2022/05/10 03:40:54;;;;;;;14.55;6.93;;;15.70;82.30;;;;;;5038113;28;20037;-67
2022/05/10 03:43:20;;;;;;;13.35;7.60;;;15.80;82.00;;;;;;5038663;28;20046;-67
2022/05/10 03:45:45;;;;;;;15.13;7.47;;;15.70;82.10;;;;;;5038917;28;20056;-66
2022/05/10 03:48:11;;;;;;;13.80;7.95;;;15.70;82.10;;;;;;5039078;28;20033;-66
2022/05/10 03:50:37;;;;;;;19.60;8.27;;;15.70;82.10;;;;;;5039260;28;20073;-66
2022/05/10 03:53:02;;;;;;;13.93;7.60;;;15.70;82.60;;;;;;5038823;28;20032;-66
2022/05/10 03:55:29;;;;;;;11.38;7.65;;;15.60;82.60;;;;;;5038743;28;20042;-67
2022/05/10 03:57:55;;;;;;;12.45;7.88;;;15.50;82.50;;;;;;5039073;28;20524;-66
2022/05/10 04:00:25;;;;;;;12.68;7.60;;;15.50;82.40;;;;;;5039104;28;20033;-66
2022/05/10 04:02:51;;;;;;;14.60;8.07;;;15.40;82.60;;;;;;5038999;28;20075;-66
2022/05/10 04:05:18;;;;;;;15.77;8.70;;;15.40;82.90;;;;;;5039069;28;20375;-66
2022/05/10 04:07:44;;;;;;;12.27;8.25;;;15.40;83.10;;;;;;5038990;28;20466;-67
2022/05/10 04:10:12;;;;;;;12.52;8.60;;;15.40;83.10;;;;;;5038980;28;20045;-67
2022/05/10 04:12:39;;;;;;;17.00;8.77;;;15.40;83.00;;;;;;5038857;28;20053;-67
2022/05/10 04:15:10;;;;;;;14.00;8.70;;;15.30;83.20;;;;;;5038722;28;20034;-67
2022/05/10 04:17:36;;;;;;;13.85;8.82;;;15.30;83.40;;;;;;5038167;28;20116;-67
2022/05/10 04:20:06;;;;;;;18.85;8.40;;;15.30;83.30;;;;;;5038221;28;20070;-67
2022/05/10 04:22:32;;;;;;;12.68;8.50;;;15.20;83.20;;;;;;5038097;28;20030;-67
2022/05/10 04:24:57;;;;;;;12.10;8.77;;;15.20;83.30;;;;;;5038067;28;20113;-67
2022/05/10 04:27:23;;;;;;;13.85;8.48;;;15.20;83.60;;;;;;5037899;28;20133;-67
2022/05/10 04:29:49;;;;;;;13.98;8.52;;;15.20;83.80;;;;;;5036531;28;20042;-67
2022/05/10 04:32:14;;;;;;;14.23;8.45;;;15.20;84.00;;;;;;5034936;28;20116;-66
2022/05/10 04:34:40;;;;;;;14.85;7.93;;;15.20;84.20;;;;;;5034648;28;20080;-67
2022/05/10 04:37:06;;;;;;;17.17;8.73;;;15.30;84.30;;;;;;5035063;28;20033;-67
2022/05/10 04:42:16;;;;;;;19.10;8.35;;;15.30;84.30;;;;;;5035142;28;20091;-68
2022/05/10 04:44:42;;;;;;;16.20;8.38;;;15.40;84.50;;;;;;5035398;28;20044;-67
2022/05/10 04:47:08;;;;;;;14.27;8.40;;;15.40;84.20;;;;;;5035295;28;20037;-66
2022/05/10 04:49:33;;;;;;;12.13;8.65;;;15.40;84.10;;;;;;5035331;28;20037;-66
2022/05/10 04:51:59;;;;;;;15.43;9.02;;;15.40;84.10;;;;;;5034635;28;20065;-67
2022/05/10 04:54:25;;;;;;;14.45;8.60;;;15.40;84.50;;;;;;5034596;28;20092;-68
2022/05/10 04:56:50;;;;;;;14.65;8.13;;;15.50;84.60;;;;;;5034642;28;20033;-67
2022/05/10 04:59:16;;;;;;;12.93;8.50;;;15.50;84.50;;;;;;5034711;28;20033;-67
2022/05/10 05:01:41;;;;;;;14.15;9.38;;;15.50;84.60;;;;;;5034773;28;20044;-66
2022/05/10 05:04:07;;;;;;;13.27;8.82;;;15.50;84.80;;;;;;5034572;28;20083;-68
2022/05/10 05:06:39;;;;;;;14.73;9.15;;;15.60;85.10;;;;;;5034550;28;20037;-66
2022/05/10 05:09:06;;;;;;;15.93;8.30;;;15.60;85.60;;;;;;5033921;28;20065;-67
2022/05/10 05:11:32;;;;;;;14.48;8.70;;;15.60;86.10;;;;;;5034254;28;20033;-67
2022/05/10 05:13:57;;;;;;;16.35;7.78;;;15.70;86.30;;;;;;5034323;28;20288;-66
2022/05/10 05:16:23;;;;;;;9.48;6.72;;;15.70;86.30;;;;;;5033877;28;20033;-66
2022/05/10 05:18:49;;;;;;;14.73;6.82;;;15.80;85.70;;;;;;5034178;28;20040;-66
2022/05/10 05:21:15;;;;;;;9.80;6.25;;;15.80;85.20;;;;;;5033663;28;20041;-67
2022/05/10 05:23:41;;;;;;;11.13;6.63;;;15.90;84.60;;;;;;5033685;28;20489;-67
2022/05/10 05:26:06;;;;;;;15.73;7.32;;;16.00;83.60;;;;;;5033644;28;20124;-67
2022/05/10 05:28:32;;;;;;;13.38;6.55;;;16.00;83.00;;;;;;5033921;28;20041;-68
2022/05/10 05:30:59;;;;;;;13.35;6.10;;;16.10;82.30;;;;;;5033648;28;20044;-67
2022/05/10 05:33:25;;;;;;;12.52;6.68;;;16.20;81.90;;;;;;5032666;28;20041;-67
2022/05/10 05:35:51;;;;;;;12.23;6.40;;;16.20;81.90;;;;;;5033301;28;20477;-67
2022/05/10 05:38:16;;;;;;;16.55;6.90;;;16.30;81.60;;;;;;5032622;28;20033;-67
2022/05/10 05:40:42;;;;;;;11.43;6.25;;;16.30;81.40;;;;;;5032945;28;20778;-66
2022/05/10 05:43:17;;;;;;;10.80;6.55;;;16.40;81.60;;;;;;5032546;28;20042;-67
2022/05/10 05:45:42;;;;;;;19.35;6.63;;;16.50;81.50;;;;;;5032881;28;20292;-67
2022/05/10 05:48:09;;;;;;;16.00;6.63;;;16.50;81.20;;;;;;5032008;28;20128;-66
2022/05/10 05:50:35;;;;;;;11.77;6.93;;;16.50;80.90;;;;;;5032442;28;20033;-67
2022/05/10 05:53:01;;;;;;;14.65;6.40;;;16.60;80.80;;;;;;5033990;28;20055;-67
2022/05/10 05:55:27;;;;;;;11.07;6.30;;;16.70;80.20;;;;;;5034307;28;20040;-67
2022/05/10 05:57:52;;;;;;;10.88;6.35;;;16.70;79.40;;;;;;5033740;28;20033;-67
2022/05/10 06:00:21;;;;;;;15.45;6.22;;;16.80;79.30;;;;;;5033709;28;20104;-67
2022/05/10 06:02:47;;;;;;;12.85;6.68;;;16.80;79.40;;;;;;5033760;28;20398;-67
2022/05/10 06:05:13;;;;;;;12.13;6.25;;;16.90;79.30;;;;;;5033134;28;20049;-67
2022/05/10 06:07:39;;;;;;;15.02;6.07;;;17.00;79.20;;;;;;5033442;28;20030;-67
2022/05/10 06:10:06;;;;;;;12.25;6.45;;;17.00;79.10;;;;;;5032588;28;20042;-67
2022/05/10 06:12:32;;;;;;;12.18;5.63;;;17.10;79.00;;;;;;5031919;28;20056;-67
2022/05/10 06:14:59;;;;;;;13.82;5.88;;;17.10;78.70;;;;;;5032243;28;20037;-67
2022/05/10 06:17:25;;;;;;;16.88;6.45;;;17.20;78.50;;;;;;5032090;28;20509;-67
2022/05/10 06:19:50;;;;;;;23.08;7.05;;;17.20;78.50;;;;;;5031171;28;20057;-66
2022/05/10 06:22:16;;;;;;;11.70;6.10;;;17.30;78.80;;;;;;5032393;28;20034;-67
2022/05/10 06:24:42;;;;;;;15.68;6.10;;;17.40;78.70;;;;;;5031387;28;20421;-67
2022/05/10 06:27:14;;;;;;;10.02;5.88;;;17.40;78.20;;;;;;5031692;28;20069;-66
2022/05/10 06:29:39;;;;;;;11.98;6.32;;;17.50;78.20;;;;;;5031506;28;20037;-67
2022/05/10 06:32:05;;;;;;;18.58;5.85;;;17.60;78.00;;;;;;5032245;28;20033;-67
2022/05/10 06:34:31;;;;;;;12.13;6.10;;;17.60;77.40;;;;;;5031206;28;20379;-66
2022/05/10 06:36:57;;;;;;;12.52;6.75;;;17.70;77.20;;;;;;5031066;28;20097;-67
2022/05/10 06:39:22;;;;;;;14.40;6.35;;;17.70;77.60;;;;;;5031191;28;20499;-67
2022/05/10 06:41:48;;;;;;;12.13;6.32;;;17.80;77.30;;;;;;5030022;28;20040;-66
2022/05/10 06:44:14;;;;;;;10.05;5.68;;;17.90;77.40;;;;;;5011774;28;20073;-67
2022/05/10 06:46:40;;;;;;;14.90;5.85;;;17.90;76.70;;;;;;5011666;28;20089;-68
2022/05/10 06:49:06;;;;;;;11.52;5.75;;;18.00;76.20;;;;;;5011350;28;20030;-67
2022/05/10 06:51:33;;;;;;;14.77;6.28;;;18.00;75.80;;;;;;5011672;28;20034;-67
2022/05/10 06:54:00;;;;;;;14.50;5.65;;;18.10;76.10;;;;;;5011908;28;20033;-67
2022/05/10 06:56:25;;;;;;;15.15;6.07;;;18.10;75.80;;;;;;5013266;28;20030;-68
2022/05/10 06:58:52;;;;;;;14.35;5.80;;;18.20;75.80;;;;;;5011372;28;20053;-68
2022/05/10 07:01:18;;;;;;;10.20;6.13;;;18.20;77.00;;;;;;5013216;28;20029;-67
2022/05/10 07:03:46;;;;;;;14.45;6.15;;;18.30;76.30;;;;;;5011358;28;20045;-67
2022/05/10 07:06:16;;;;;;;10.45;6.07;;;18.40;76.90;;;;;;5012536;28;20112;-67
2022/05/10 07:08:42;;;;;;;14.75;6.72;;;18.40;76.80;;;;;;4999054;28;20035;-67
2022/05/10 07:11:08;;;;;;;9.02;5.78;;;18.50;77.00;;;;;;4993635;28;20034;-67
2022/05/10 07:13:34;;;;;;;11.20;6.10;;;18.60;76.30;;;;;;4992228;28;20026;-67
2022/05/10 07:16:01;;;;;;;10.80;5.90;;;18.60;76.00;;;;;;4990614;28;20089;-67
2022/05/10 07:18:27;;;;;;;9.27;6.30;;;18.70;76.00;;;;;;4993086;28;20038;-67
2022/05/10 07:20:53;;;;;;;14.32;6.63;;;18.70;75.20;;;;;;4993006;28;20092;-66
2022/05/10 07:23:26;;;;;;;12.80;6.80;;;18.80;74.50;;;;;;4993017;28;20118;-67
2022/05/10 07:25:52;;;;;;;;;;;18.80;74.20;;;;;;4993785;28;20078;-67
2022/05/10 07:28:17;;;;;;;10.48;5.80;;;18.90;74.00;;;;;;4993749;28;19905;-67
2022/05/10 07:30:44;;;;;;;16.70;6.40;;;18.90;73.40;;;;;;4992176;28;20394;-68
2022/05/10 07:33:10;;;;;;;13.02;6.15;;;19.00;73.60;;;;;;4993100;28;20050;-68
2022/05/10 07:38:20;;;;;;;10.68;5.57;;;19.10;74.30;;;;;;4993788;28;20458;-67
2022/05/10 07:40:48;;;;;;;13.20;6.30;;;19.10;73.70;;;;;;4993316;28;20034;-67
2022/05/10 07:43:19;;;;;;;14.20;6.90;;;19.20;74.60;;;;;;4993049;28;20410;-67
2022/05/10 07:45:48;;;;;;;12.32;5.65;;;19.30;75.00;;;;;;4993327;28;20105;-67
2022/05/10 07:48:14;;;;;;;11.90;6.38;;;19.40;74.80;;;;;;4992448;28;20034;-67
2022/05/10 07:50:40;;;;;;;11.85;6.10;;;19.40;74.70;;;;;;4992627;28;20050;-66
2022/05/10 07:53:10;;;;;;;12.93;6.13;;;19.50;74.60;;;;;;4993045;28;20034;-67
2022/05/10 07:55:36;;;;;;;10.63;5.82;;;19.60;74.20;;;;;;4993139;28;20418;-67
2022/05/10 07:58:04;;;;;;;12.68;5.75;;;19.70;72.70;;;;;;4991553;28;20042;-66
2022/05/10 08:00:30;;;;;;;11.07;5.90;;;19.70;72.80;;;;;;4992635;28;20038;-66
2022/05/10 08:02:56;;;;;;;11.98;6.18;;;19.80;72.10;;;;;;4993009;28;20030;-67
2022/05/10 08:05:25;;;;;;;16.17;6.10;;;19.80;71.80;;;;;;4993787;28;20407;-66
2022/05/10 08:07:51;;;;;;;8.32;5.70;;;19.90;71.50;;;;;;4996873;28;20085;-67
2022/05/10 08:10:18;;;;;;;11.90;5.85;;;19.90;71.90;;;;;;4996299;28;20124;-67
2022/05/10 08:12:44;;;;;;;12.80;6.05;;;20.00;71.70;;;;;;4996500;28;20034;-67
2022/05/10 08:15:11;;;;;;;12.57;6.63;;;20.10;71.90;;;;;;4996444;28;20139;-67
2022/05/10 08:17:37;;;;;;;14.63;5.95;;;20.10;72.70;;;;;;4997011;28;20042;-67
2022/05/10 08:20:04;;;;;;;9.02;5.90;;;20.20;71.30;;;;;;4996803;28;20038;-67
2022/05/10 08:22:31;;;;;;;14.32;6.00;;;20.20;71.70;;;;;;4996543;28;20031;-67
2022/05/10 08:24:57;;;;;;;14.02;5.93;;;20.30;71.50;;;;;;4996492;28;20073;-66
2022/05/10 08:27:22;;;;;;;12.05;5.50;;;20.40;71.20;;;;;;4996536;28;20062;-66
2022/05/10 08:29:48;;;;;;;10.70;5.60;;;20.40;69.80;;;;;;4995867;28;20133;-66
2022/05/10 08:32:14;;;;;;;10.65;5.85;;;20.40;69.20;;;;;;4996513;28;20038;-67
2022/05/10 08:34:39;;;;;;;9.60;5.93;;;20.50;69.70;;;;;;4996148;28;20443;-68
2022/05/10 08:37:06;;;;;;;11.98;5.75;;;20.50;68.70;;;;;;4996008;28;20122;-66
2022/05/10 08:39:31;;;;;;;8.10;5.07;;;20.60;67.30;;;;;;4995980;28;20432;-67
2022/05/10 08:42:08;;;;;;;10.25;5.72;;;20.70;68.00;;;;;;4995702;28;20093;-67
2022/05/10 08:44:39;;;;;;;13.82;5.30;;;20.70;68.20;;;;;;4995598;28;20047;-67
2022/05/10 08:47:07;;;;;;;11.97;6.03;;;20.70;67.30;;;;;;4995864;28;20446;-67
2022/05/10 08:49:40;;;;;;;12.35;5.53;;;20.80;66.70;;;;;;4996031;28;20039;-67
2022/05/10 08:52:07;;;;;;;9.80;5.47;;;20.80;65.90;;;;;;4995300;28;20034;-67
2022/05/10 08:54:36;;;;;;;12.50;4.88;;;20.90;66.50;;;;;;4996088;28;20045;-67
2022/05/10 08:57:34;;;;;;;12.73;5.80;;;21.00;64.10;;;;;;4995651;28;20547;-67
2022/05/10 09:00:11;;;;;;;17.25;5.65;;;21.10;64.90;;;;;;4962329;28;20034;-67
2022/05/10 09:02:50;;;;;;;8.93;4.78;;;21.20;65.50;;;;;;4995469;28;20125;-67
2022/05/10 09:05:28;;;;;;;11.30;4.68;;;21.30;64.70;;;;;;4995239;28;20513;-68
2022/05/10 09:08:16;;;;;;;10.88;4.70;;;21.30;63.60;;;;;;4995652;28;20045;-68
2022/05/10 09:10:50;;;;;;;10.90;4.85;;;21.40;63.80;;;;;;4995407;28;20030;-67
2022/05/10 09:13:20;;;;;;;10.48;5.40;;;21.50;62.70;;;;;;4995803;28;20045;-67
2022/05/10 09:15:51;;;;;;;12.00;5.10;;;21.50;61.10;;;;;;4995150;28;20070;-67
2022/05/10 09:18:24;;;;;;;8.00;5.10;;;21.50;61.90;;;;;;4995441;28;20033;-68
2022/05/10 09:21:00;;;;;;;11.07;4.95;;;21.60;62.20;;;;;;4994102;28;20042;-67
2022/05/10 09:23:41;;;;;;;9.85;4.75;;;21.60;62.50;;;;;;4993452;28;20033;-67
2022/05/10 09:26:11;;;;;;;12.07;4.70;;;21.70;60.60;;;;;;4994751;28;20038;-66
2022/05/10 09:29:05;;;;;;;8.68;5.45;;;21.70;60.60;;;;;;4995204;28;20546;-67
2022/05/10 09:37:15;;;;;;;14.15;5.18;;;22.00;61.40;;;;;;4995295;28;20126;-67
2022/05/10 09:39:48;;;;;;;10.20;5.07;;;22.00;59.40;;;;;;4994998;28;20031;-68
2022/05/10 09:42:41;;;;;;;9.27;4.57;;;22.00;60.30;;;;;;4995131;28;20038;-68
2022/05/10 09:45:07;;;;;;;10.63;4.68;;;22.10;58.70;;;;;;4986667;28;20172;-68
2022/05/10 09:47:33;;;;;;;6.18;4.40;;;22.20;59.00;;;;;;4994839;28;20041;-68
2022/05/10 09:50:21;;;;;;;11.40;4.82;;;22.20;58.30;;;;;;4994994;28;20125;-67
2022/05/10 09:52:47;;;;;;;9.70;4.70;;;22.30;58.80;;;;;;4994702;28;20109;-67
2022/05/10 09:55:34;;;;;;;11.57;5.20;;;22.30;56.80;;;;;;4994899;28;20487;-66
2022/05/10 09:58:16;;;;;;;10.63;4.85;;;22.30;57.80;;;;;;4994056;28;20042;-66
2022/05/10 10:00:51;;;;;;;13.05;4.72;;;22.40;58.00;;;;;;4994685;28;20039;-66
2022/05/10 10:03:39;;;;;;;15.82;4.70;;;22.50;58.50;;;;;;4994872;28;20031;-66
2022/05/10 10:06:15;;;;;;;13.00;4.97;;;22.50;57.00;;;;;;4995012;28;20042;-66
2022/05/10 10:08:42;;;;;;;6.78;4.32;;;22.50;56.60;;;;;;4994595;28;20498;-67
2022/05/10 10:11:26;;;;;;;9.30;3.83;;;22.60;56.60;;;;;;4993756;28;20159;-67
2022/05/10 10:14:08;;;;;;;8.35;4.13;;;22.60;57.10;;;;;;4994774;28;20083;-66
2022/05/10 10:16:45;;;;;;;14.00;4.72;;;22.70;54.80;;;;;;4994955;28;20030;-66
2022/05/10 10:19:35;;;;;;;11.60;4.50;;;22.70;56.50;;;;;;4994941;28;20053;-66
2022/05/10 10:22:24;;;;;;;7.90;4.70;;;22.70;54.60;;;;;;4994563;28;20031;-66
2022/05/10 10:25:08;;;;;;;7.78;4.32;;;22.80;56.90;;;;;;4993686;28;20054;-66
2022/05/10 10:28:04;;;;;;;8.23;4.47;;;22.80;55.20;;;;;;4993961;28;20054;-66
2022/05/10 10:30:34;;;;;;;10.00;4.30;;;22.80;55.80;;;;;;4994576;28;20368;-67
2022/05/10 10:33:07;;;;;;;8.77;4.40;;;22.90;54.60;;;;;;4994419;28;20085;-67
2022/05/10 10:35:55;;;;;;;7.32;3.83;;;22.90;52.60;;;;;;4994288;28;20058;-66
2022/05/10 10:38:52;;;;;;;8.43;4.30;;;23.00;51.40;;;;;;4993778;28;20046;-67
2022/05/10 10:41:44;;;;;;;11.10;4.60;;;23.10;53.80;;;;;;4994206;28;20034;-66
2022/05/10 10:44:19;;;;;;;8.35;4.43;;;23.20;54.00;;;;;;4994014;28;20049;-66
2022/05/10 10:47:04;;;;;;;11.05;4.38;;;23.20;53.10;;;;;;4994313;28;20466;-67
2022/05/10 10:49:45;;;;;;;13.55;4.68;;;23.20;52.90;;;;;;4993658;28;20039;-65
2022/05/10 10:52:17;;;;;;;7.15;3.65;;;23.20;52.30;;;;;;4993392;28;20046;-66
2022/05/10 10:54:43;;;;;;;10.27;4.40;;;23.10;51.30;;;;;;4993596;28;20035;-67
2022/05/10 10:57:44;;;;;;;11.52;3.72;;;23.10;51.20;;;;;;4993525;28;20045;-67
2022/05/10 11:00:19;;;;;;;7.22;3.85;;;23.10;52.80;;;;;;4993313;28;20065;-67
2022/05/10 11:02:59;;;;;;;9.88;3.35;;;23.20;52.20;;;;;;4992960;28;20061;-67
2022/05/10 11:05:31;;;;;;;8.27;3.88;;;23.20;50.90;;;;;;4993791;28;20054;-67
2022/05/10 11:08:08;;;;;;;8.35;4.30;;;23.20;51.80;;;;;;4993681;28;20501;-67
2022/05/10 11:10:55;;;;;;;8.45;3.70;;;23.30;52.90;;;;;;4993850;28;20158;-67
2022/05/10 11:14:01;;;;;;;10.07;3.80;;;23.40;52.10;;;;;;4992945;28;20483;-67
2022/05/10 11:16:46;;;;;;;9.00;3.67;;;23.40;50.80;;;;;;4978868;28;20049;-64
2022/05/10 11:19:23;;;;;;;7.57;3.95;;;23.50;50.50;;;;;;4993602;28;20037;-64
2022/05/10 11:22:36;;;;;;;7.07;3.70;;;23.60;51.50;;;;;;4993489;28;20455;-64
2022/05/10 11:25:41;;;;;;;7.80;3.75;;;23.70;51.20;;;;;;4987289;28;20057;-64
2022/05/10 11:28:56;;;;;;;7.50;3.75;;;23.70;50.90;;;;;;4993302;28;20034;-64
2022/05/10 11:31:52;;;;;;;7.43;4.57;;;23.80;49.20;;;;;;4914072;29;20036;-64
2022/05/10 11:34:50;;;;;;;8.05;4.20;;;23.80;50.60;;;;;;4913539;29;20068;-64
2022/05/10 11:37:44;;;;;;;8.98;4.65;;;23.90;51.00;;;;;;4983780;28;20049;-65
2022/05/10 11:40:39;;;;;;;5.55;3.50;;;23.90;50.20;;;;;;4983754;28;20483;-64
2022/05/10 11:43:39;;;;;;;8.18;4.00;;;24.00;49.90;;;;;;4997110;28;20376;-64
2022/05/10 11:46:42;;;;;;;6.63;3.33;;;24.10;51.80;;;;;;4996946;28;20050;-63
2022/05/10 11:49:40;;;;;;;6.97;3.40;;;24.10;49.70;;;;;;4997043;28;20045;-65
2022/05/10 11:52:08;;;;;;;10.88;3.70;;;24.10;49.60;;;;;;4997281;28;20046;-66
2022/05/10 11:55:11;;;;;;;7.93;3.40;;;24.10;48.70;;;;;;4997024;28;20030;-66
2022/05/10 11:57:38;;;;;;;8.55;3.67;;;24.20;48.80;;;;;;4996571;28;20440;-67
2022/05/10 12:00:32;;;;;;;10.00;3.60;;;24.30;51.60;;;;;;4997108;28;20097;-66
2022/05/10 12:02:59;;;;;;;9.05;4.15;;;24.30;48.80;;;;;;4997046;28;20049;-66
2022/05/10 12:05:27;;;;;;;5.90;3.28;;;24.30;47.40;;;;;;4996906;28;20438;-66
2022/05/10 12:07:57;;;;;;;14.05;4.40;;;24.30;46.50;;;;;;4996508;28;20121;-65
2022/05/10 12:10:22;;;;;;;6.60;3.50;;;24.30;47.80;;;;;;4996924;28;20046;-65
2022/05/10 12:13:09;;;;;;;12.30;3.80;;;24.30;47.30;;;;;;4996720;28;20030;-66
2022/05/10 12:21:37;;;;;;;8.18;3.72;;;24.60;47.80;;;;;;4996540;28;20175;-66
2022/05/10 12:24:05;;;;;;;7.93;3.42;;;24.70;48.90;;;;;;4996448;28;20052;-66
2022/05/10 12:26:34;;;;;;;6.47;3.70;;;24.80;48.40;;;;;;4996164;28;20042;-66
2022/05/10 12:28:59;;;;;;;10.73;4.07;;;24.90;47.90;;;;;;4996512;28;20049;-67
2022/05/10 12:31:33;;;;;;;6.43;3.45;;;24.90;48.00;;;;;;4996193;28;20038;-66
2022/05/10 12:34:03;;;;;;;11.38;3.17;;;25.00;48.50;;;;;;4996236;28;20137;-66
2022/05/10 12:36:35;;;;;;;13.60;3.63;;;25.00;47.50;;;;;;4996318;28;20038;-65
2022/05/10 12:39:29;;;;;;;7.80;3.92;;;25.00;48.30;;;;;;4996432;28;20034;-65
2022/05/10 12:42:15;;;;;;;8.48;3.70;;;25.10;47.50;;;;;;4988745;28;20045;-65
2022/05/10 12:44:50;;;;;;;3.92;3.03;;;25.10;47.50;;;;;;4995801;28;20038;-65
2022/05/10 12:47:34;;;;;;;10.50;3.67;;;25.20;47.80;;;;;;4996164;28;20034;-66
2022/05/10 12:50:21;;;;;;;5.50;4.18;;;25.20;46.50;;;;;;4996495;28;20035;-67
2022/05/10 12:52:48;;;;;;;14.52;4.10;;;25.30;49.30;;;;;;4994983;28;20226;-66
2022/05/10 12:55:19;;;;;;;10.55;3.95;;;25.30;49.10;;;;;;4995432;28;20042;-67
2022/05/10 17:30:38;;;;;;;9.55;5.50;;;24.20;55.30;;;;;;5111034;28;20032;-64
2022/05/10 17:33:08;;;;;;;10.30;5.07;;;24.10;55.60;;;;;;5110777;28;20035;-65
2022/05/10 17:35:35;;;;;;;11.73;5.57;;;24.10;55.40;;;;;;5111058;28;20533;-65
2022/05/10 17:38:01;;;;;;;12.77;5.07;;;24.10;55.60;;;;;;5110607;28;20069;-65
2022/05/10 17:40:26;;;;;;;16.48;5.35;;;24.10;55.80;;;;;;5111001;28;20036;-65
2022/05/10 17:42:52;;;;;;;18.58;5.93;;;24.20;55.60;;;;;;5110582;28;20099;-65
2022/05/10 17:45:18;;;;;;;13.63;5.57;;;24.20;55.30;;;;;;5110493;28;20068;-65
2022/05/10 17:47:44;;;;;;;10.80;5.57;;;24.20;55.20;;;;;;5110199;28;20043;-65
2022/05/10 17:50:11;;;;;;;13.70;5.28;;;24.20;54.70;;;;;;5109670;28;20403;-65
2022/05/10 17:52:37;;;;;;;12.93;5.78;;;24.20;54.40;;;;;;5109942;28;20024;-65
2022/05/10 17:55:05;;;;;;;13.98;5.55;;;24.20;54.60;;;;;;5110146;28;20149;-65
2022/05/10 17:57:31;;;;;;;12.65;5.50;;;24.10;54.70;;;;;;5109780;28;20024;-64
2022/05/10 17:59:57;;;;;;;12.93;5.55;;;24.10;55.20;;;;;;5110296;28;20035;-64